sensor_id;sensor_type;location;lat;lon;timestamp;temperature;humidity
19044;DHT22;9654;52.302;8.120;2022-12-29T00:01:27;9.50;99.90
19044;DHT22;9654;52.302;8.120;2022-12-29T00:03:53;9.50;99.90
19044;DHT22;9654;52.302;8.120;2022-12-29T00:06:20;9.50;99.90
19044;DHT22;9654;52.302;8.120;2022-12-29T00:08:47;9.50;99.90
19044;DHT22;9654;52.302;8.120;2022-12-29T00:11:16;9.50;99.90
19044;DHT22;9654;52.302;8.120;2022-12-29T00:13:43;9.60;99.90
19044;DHT22;9654;52.302;8.120;2022-12-29T00:16:30;9.60;99.90
19044;DHT22;9654;52.302;8.120;2022-12-29T00:18:58;9.60;99.90
19044;DHT22;9654;52.302;8.120;2022-12-29T00:21:25;9.60;99.90
19044;DHT22;9654;52.302;8.120;2022-12-29T00:24:12;9.70;99.90
19044;DHT22;9654;52.302;8.120;2022-12-29T00:26:58;9.70;99.90
19044;DHT22;9654;52.302;8.120;2022-12-29T00:29:51;9.70;99.90
19044;DHT22;9654;52.302;8.120;2022-12-29T00:32:37;9.70;99.90
19044;DHT22;9654;52.302;8.120;2022-12-29T00:35:25;9.70;99.90
19044;DHT22;9654;52.302;8.120;2022-12-29T00:37:54;9.80;99.90
19044;DHT22;9654;52.302;8.120;2022-12-29T00:40:40;9.80;99.90
19044;DHT22;9654;52.302;8.120;2022-12-29T00:43:24;9.80;99.90
19044;DHT22;9654;52.302;8.120;2022-12-29T00:46:08;9.80;99.90
19044;DHT22;9654;52.302;8.120;2022-12-29T00:48:36;9.80;99.90
19044;DHT22;9654;52.302;8.120;2022-12-29T00:51:23;9.90;99.90
19044;DHT22;9654;52.302;8.120;2022-12-29T00:53:50;9.90;99.90
19044;DHT22;9654;52.302;8.120;2022-12-29T00:56:16;9.90;99.90
19044;DHT22;9654;52.302;8.120;2022-12-29T00:58:43;9.90;99.90
19044;DHT22;9654;52.302;8.120;2022-12-29T01:01:10;9.90;99.90
19044;DHT22;9654;52.302;8.120;2022-12-29T01:03:38;10.00;99.90
19044;DHT22;9654;52.302;8.120;2022-12-29T01:06:07;10.00;99.90
19044;DHT22;9654;52.302;8.120;2022-12-29T01:08:35;10.00;99.90
19044;DHT22;9654;52.302;8.120;2022-12-29T01:11:04;10.00;99.90
19044;DHT22;9654;52.302;8.120;2022-12-29T01:13:30;10.00;99.90
19044;DHT22;9654;52.302;8.120;2022-12-29T01:15:58;10.10;99.90
19044;DHT22;9654;52.302;8.120;2022-12-29T01:18:25;10.10;99.90
19044;DHT22;9654;52.302;8.120;2022-12-29T01:20:59;10.10;99.90
19044;DHT22;9654;52.302;8.120;2022-12-29T01:23:26;10.10;99.90
19044;DHT22;9654;52.302;8.120;2022-12-29T01:25:53;10.10;99.90
19044;DHT22;9654;52.302;8.120;2022-12-29T01:28:20;10.10;99.90
19044;DHT22;9654;52.302;8.120;2022-12-29T01:30:47;10.10;99.90
19044;DHT22;9654;52.302;8.120;2022-12-29T01:33:14;10.10;99.90
19044;DHT22;9654;52.302;8.120;2022-12-29T01:35:41;10.10;99.90
19044;DHT22;9654;52.302;8.120;2022-12-29T01:38:09;10.10;99.90
19044;DHT22;9654;52.302;8.120;2022-12-29T01:40:43;10.20;99.90
19044;DHT22;9654;52.302;8.120;2022-12-29T01:43:13;10.20;99.90
19044;DHT22;9654;52.302;8.120;2022-12-29T01:45:45;10.20;99.90
19044;DHT22;9654;52.302;8.120;2022-12-29T01:48:15;10.20;99.90
19044;DHT22;9654;52.302;8.120;2022-12-29T01:50:45;10.20;99.90
19044;DHT22;9654;52.302;8.120;2022-12-29T01:53:19;10.20;99.90
19044;DHT22;9654;52.302;8.120;2022-12-29T01:55:51;10.10;99.90
19044;DHT22;9654;52.302;8.120;2022-12-29T01:58:21;10.00;99.90
19044;DHT22;9654;52.302;8.120;2022-12-29T02:00:49;10.00;99.90
19044;DHT22;9654;52.302;8.120;2022-12-29T02:03:17;10.00;99.90
19044;DHT22;9654;52.302;8.120;2022-12-29T02:05:48;9.90;99.90
19044;DHT22;9654;52.302;8.120;2022-12-29T02:08:18;9.90;99.90
19044;DHT22;9654;52.302;8.120;2022-12-29T02:10:45;9.90;99.90
19044;DHT22;9654;52.302;8.120;2022-12-29T02:13:15;10.00;99.90
19044;DHT22;9654;52.302;8.120;2022-12-29T02:15:50;10.00;99.90
19044;DHT22;9654;52.302;8.120;2022-12-29T02:18:28;10.10;99.90
19044;DHT22;9654;52.302;8.120;2022-12-29T02:21:29;10.00;99.90
19044;DHT22;9654;52.302;8.120;2022-12-29T02:24:22;10.00;99.90
19044;DHT22;9654;52.302;8.120;2022-12-29T02:27:06;10.00;99.90
19044;DHT22;9654;52.302;8.120;2022-12-29T02:30:07;10.00;99.90
19044;DHT22;9654;52.302;8.120;2022-12-29T02:32:41;10.00;99.90
19044;DHT22;9654;52.302;8.120;2022-12-29T02:35:23;10.00;99.90
19044;DHT22;9654;52.302;8.120;2022-12-29T02:37:58;10.00;99.90
19044;DHT22;9654;52.302;8.120;2022-12-29T02:40:33;10.00;99.90
19044;DHT22;9654;52.302;8.120;2022-12-29T02:43:11;10.10;99.90
19044;DHT22;9654;52.302;8.120;2022-12-29T02:45:46;10.10;99.90
19044;DHT22;9654;52.302;8.120;2022-12-29T02:48:17;10.10;99.90
19044;DHT22;9654;52.302;8.120;2022-12-29T02:50:53;10.20;99.90
19044;DHT22;9654;52.302;8.120;2022-12-29T02:53:21;10.20;99.90
19044;DHT22;9654;52.302;8.120;2022-12-29T02:56:04;10.20;99.90
19044;DHT22;9654;52.302;8.120;2022-12-29T02:58:31;10.20;99.90
19044;DHT22;9654;52.302;8.120;2022-12-29T03:01:09;10.30;99.90
19044;DHT22;9654;52.302;8.120;2022-12-29T03:03:48;10.30;99.90
19044;DHT22;9654;52.302;8.120;2022-12-29T03:06:31;10.30;99.90
19044;DHT22;9654;52.302;8.120;2022-12-29T03:09:05;10.30;99.90
19044;DHT22;9654;52.302;8.120;2022-12-29T03:11:43;10.40;99.90
19044;DHT22;9654;52.302;8.120;2022-12-29T03:14:29;10.40;99.90
19044;DHT22;9654;52.302;8.120;2022-12-29T03:17:21;10.40;99.90
19044;DHT22;9654;52.302;8.120;2022-12-29T03:19:56;10.40;99.90
19044;DHT22;9654;52.302;8.120;2022-12-29T03:22:28;10.40;99.90
19044;DHT22;9654;52.302;8.120;2022-12-29T03:24:59;10.50;99.90
19044;DHT22;9654;52.302;8.120;2022-12-29T03:27:31;10.40;99.90
19044;DHT22;9654;52.302;8.120;2022-12-29T03:30:01;10.40;99.90
19044;DHT22;9654;52.302;8.120;2022-12-29T03:32:32;10.40;99.90
19044;DHT22;9654;52.302;8.120;2022-12-29T03:35:02;10.40;99.90
19044;DHT22;9654;52.302;8.120;2022-12-29T03:37:34;10.40;99.90
19044;DHT22;9654;52.302;8.120;2022-12-29T03:40:02;10.50;99.90
19044;DHT22;9654;52.302;8.120;2022-12-29T03:42:31;10.50;99.90
19044;DHT22;9654;52.302;8.120;2022-12-29T03:44:59;10.50;99.90
19044;DHT22;9654;52.302;8.120;2022-12-29T03:47:25;10.50;99.90
19044;DHT22;9654;52.302;8.120;2022-12-29T03:49:53;10.50;99.90
19044;DHT22;9654;52.302;8.120;2022-12-29T03:52:21;10.60;99.90
19044;DHT22;9654;52.302;8.120;2022-12-29T03:54:47;10.60;99.90
19044;DHT22;9654;52.302;8.120;2022-12-29T03:57:14;10.60;99.90
19044;DHT22;9654;52.302;8.120;2022-12-29T03:59:41;10.60;99.90
19044;DHT22;9654;52.302;8.120;2022-12-29T04:02:08;10.60;99.90
19044;DHT22;9654;52.302;8.120;2022-12-29T04:04:34;10.70;99.90
19044;DHT22;9654;52.302;8.120;2022-12-29T04:07:01;10.70;99.90
19044;DHT22;9654;52.302;8.120;2022-12-29T04:09:29;10.70;99.90
19044;DHT22;9654;52.302;8.120;2022-12-29T04:11:56;10.70;99.90
19044;DHT22;9654;52.302;8.120;2022-12-29T04:14:23;10.70;99.90
19044;DHT22;9654;52.302;8.120;2022-12-29T04:16:50;10.70;99.90
19044;DHT22;9654;52.302;8.120;2022-12-29T04:19:17;10.70;99.90
19044;DHT22;9654;52.302;8.120;2022-12-29T04:21:43;10.80;99.90
19044;DHT22;9654;52.302;8.120;2022-12-29T04:24:10;10.80;99.90
19044;DHT22;9654;52.302;8.120;2022-12-29T04:26:40;10.80;99.90
19044;DHT22;9654;52.302;8.120;2022-12-29T04:29:06;10.80;99.90
19044;DHT22;9654;52.302;8.120;2022-12-29T04:31:33;10.80;99.90
19044;DHT22;9654;52.302;8.120;2022-12-29T04:34:00;10.80;99.90
19044;DHT22;9654;52.302;8.120;2022-12-29T04:36:27;10.80;99.90
19044;DHT22;9654;52.302;8.120;2022-12-29T04:38:54;10.90;99.90
19044;DHT22;9654;52.302;8.120;2022-12-29T04:41:20;10.80;99.90
19044;DHT22;9654;52.302;8.120;2022-12-29T04:43:49;10.90;99.90
19044;DHT22;9654;52.302;8.120;2022-12-29T04:46:16;10.90;99.90
19044;DHT22;9654;52.302;8.120;2022-12-29T04:48:42;10.90;99.90
19044;DHT22;9654;52.302;8.120;2022-12-29T04:51:09;10.90;99.90
19044;DHT22;9654;52.302;8.120;2022-12-29T04:53:36;11.00;99.90
19044;DHT22;9654;52.302;8.120;2022-12-29T04:56:03;11.00;99.90
19044;DHT22;9654;52.302;8.120;2022-12-29T04:58:30;11.00;99.90
19044;DHT22;9654;52.302;8.120;2022-12-29T05:00:58;11.00;99.90
19044;DHT22;9654;52.302;8.120;2022-12-29T05:03:25;11.00;99.90
19044;DHT22;9654;52.302;8.120;2022-12-29T05:05:53;11.00;99.90
19044;DHT22;9654;52.302;8.120;2022-12-29T05:08:19;11.00;99.90
19044;DHT22;9654;52.302;8.120;2022-12-29T05:10:46;11.00;99.90
19044;DHT22;9654;52.302;8.120;2022-12-29T05:13:13;10.90;99.90
19044;DHT22;9654;52.302;8.120;2022-12-29T05:15:40;10.90;99.90
19044;DHT22;9654;52.302;8.120;2022-12-29T05:18:08;10.80;99.90
19044;DHT22;9654;52.302;8.120;2022-12-29T05:20:35;10.80;99.90
19044;DHT22;9654;52.302;8.120;2022-12-29T05:23:01;10.70;99.90
19044;DHT22;9654;52.302;8.120;2022-12-29T05:25:28;10.60;99.90
19044;DHT22;9654;52.302;8.120;2022-12-29T05:27:55;10.50;99.90
19044;DHT22;9654;52.302;8.120;2022-12-29T05:30:21;10.40;99.90
19044;DHT22;9654;52.302;8.120;2022-12-29T05:32:48;10.30;99.90
19044;DHT22;9654;52.302;8.120;2022-12-29T05:35:16;10.20;99.90
19044;DHT22;9654;52.302;8.120;2022-12-29T05:37:43;10.10;99.90
19044;DHT22;9654;52.302;8.120;2022-12-29T05:40:11;10.10;99.90
19044;DHT22;9654;52.302;8.120;2022-12-29T05:42:37;10.00;99.90
19044;DHT22;9654;52.302;8.120;2022-12-29T05:45:05;9.90;99.90
19044;DHT22;9654;52.302;8.120;2022-12-29T05:47:32;9.90;99.90
19044;DHT22;9654;52.302;8.120;2022-12-29T05:50:00;9.80;99.90
19044;DHT22;9654;52.302;8.120;2022-12-29T05:52:28;9.70;99.90
19044;DHT22;9654;52.302;8.120;2022-12-29T05:54:54;9.70;99.90
19044;DHT22;9654;52.302;8.120;2022-12-29T05:57:21;9.60;99.90
19044;DHT22;9654;52.302;8.120;2022-12-29T05:59:48;9.60;99.90
19044;DHT22;9654;52.302;8.120;2022-12-29T06:02:15;9.60;99.90
19044;DHT22;9654;52.302;8.120;2022-12-29T06:04:41;9.60;99.90
19044;DHT22;9654;52.302;8.120;2022-12-29T06:07:08;9.50;99.90
19044;DHT22;9654;52.302;8.120;2022-12-29T06:09:36;9.50;99.90
19044;DHT22;9654;52.302;8.120;2022-12-29T06:12:03;9.50;99.90
19044;DHT22;9654;52.302;8.120;2022-12-29T06:14:30;9.40;99.90
19044;DHT22;9654;52.302;8.120;2022-12-29T06:16:57;9.30;99.90
19044;DHT22;9654;52.302;8.120;2022-12-29T06:19:25;9.30;99.90
19044;DHT22;9654;52.302;8.120;2022-12-29T06:21:52;9.30;99.90
19044;DHT22;9654;52.302;8.120;2022-12-29T06:24:19;9.30;99.90
19044;DHT22;9654;52.302;8.120;2022-12-29T06:26:47;9.30;99.90
19044;DHT22;9654;52.302;8.120;2022-12-29T06:29:14;9.30;99.90
19044;DHT22;9654;52.302;8.120;2022-12-29T06:31:42;9.20;99.90
19044;DHT22;9654;52.302;8.120;2022-12-29T06:34:10;9.20;99.90
19044;DHT22;9654;52.302;8.120;2022-12-29T06:36:37;9.30;99.90
19044;DHT22;9654;52.302;8.120;2022-12-29T06:39:04;9.30;99.90
19044;DHT22;9654;52.302;8.120;2022-12-29T06:41:31;9.20;99.90
19044;DHT22;9654;52.302;8.120;2022-12-29T06:43:59;9.30;99.90
19044;DHT22;9654;52.302;8.120;2022-12-29T06:46:26;9.30;99.90
19044;DHT22;9654;52.302;8.120;2022-12-29T06:48:53;9.20;99.90
19044;DHT22;9654;52.302;8.120;2022-12-29T06:51:20;9.30;99.90
19044;DHT22;9654;52.302;8.120;2022-12-29T06:53:46;9.30;99.90
19044;DHT22;9654;52.302;8.120;2022-12-29T06:56:13;9.20;99.90
19044;DHT22;9654;52.302;8.120;2022-12-29T06:58:40;9.30;99.90
19044;DHT22;9654;52.302;8.120;2022-12-29T07:01:08;9.30;99.90
19044;DHT22;9654;52.302;8.120;2022-12-29T07:03:35;9.30;99.90
19044;DHT22;9654;52.302;8.120;2022-12-29T07:06:01;9.30;99.90
19044;DHT22;9654;52.302;8.120;2022-12-29T07:08:28;9.40;99.90
19044;DHT22;9654;52.302;8.120;2022-12-29T07:10:55;9.40;99.90
19044;DHT22;9654;52.302;8.120;2022-12-29T07:13:22;9.50;99.90
19044;DHT22;9654;52.302;8.120;2022-12-29T07:15:48;9.50;99.90
19044;DHT22;9654;52.302;8.120;2022-12-29T07:18:16;9.50;99.90
19044;DHT22;9654;52.302;8.120;2022-12-29T07:20:43;9.50;99.90
19044;DHT22;9654;52.302;8.120;2022-12-29T07:23:10;9.50;99.90
19044;DHT22;9654;52.302;8.120;2022-12-29T07:25:37;9.50;99.90
19044;DHT22;9654;52.302;8.120;2022-12-29T07:28:06;9.50;99.90
19044;DHT22;9654;52.302;8.120;2022-12-29T07:30:33;9.50;99.90
19044;DHT22;9654;52.302;8.120;2022-12-29T07:33:02;9.40;99.90
19044;DHT22;9654;52.302;8.120;2022-12-29T07:35:30;9.30;99.90
19044;DHT22;9654;52.302;8.120;2022-12-29T07:37:57;9.30;99.90
19044;DHT22;9654;52.302;8.120;2022-12-29T07:40:24;9.20;99.90
19044;DHT22;9654;52.302;8.120;2022-12-29T07:42:51;9.20;99.90
19044;DHT22;9654;52.302;8.120;2022-12-29T07:45:17;9.20;99.90
19044;DHT22;9654;52.302;8.120;2022-12-29T07:47:47;9.20;99.90
19044;DHT22;9654;52.302;8.120;2022-12-29T07:50:14;9.20;99.90
19044;DHT22;9654;52.302;8.120;2022-12-29T07:52:44;9.20;99.90
19044;DHT22;9654;52.302;8.120;2022-12-29T07:55:12;9.20;99.90
19044;DHT22;9654;52.302;8.120;2022-12-29T07:57:39;9.20;99.90
19044;DHT22;9654;52.302;8.120;2022-12-29T08:00:07;9.20;99.90
19044;DHT22;9654;52.302;8.120;2022-12-29T08:02:35;9.10;99.90
19044;DHT22;9654;52.302;8.120;2022-12-29T08:05:02;9.20;99.90
19044;DHT22;9654;52.302;8.120;2022-12-29T08:07:29;9.20;99.90
19044;DHT22;9654;52.302;8.120;2022-12-29T08:09:57;9.20;99.90
19044;DHT22;9654;52.302;8.120;2022-12-29T08:12:24;9.10;99.90
19044;DHT22;9654;52.302;8.120;2022-12-29T08:14:51;9.20;99.90
19044;DHT22;9654;52.302;8.120;2022-12-29T08:17:18;9.20;99.90
19044;DHT22;9654;52.302;8.120;2022-12-29T08:19:44;9.20;99.90
19044;DHT22;9654;52.302;8.120;2022-12-29T08:22:12;9.20;99.90
19044;DHT22;9654;52.302;8.120;2022-12-29T08:24:39;9.20;99.90
19044;DHT22;9654;52.302;8.120;2022-12-29T08:27:07;9.20;99.90
19044;DHT22;9654;52.302;8.120;2022-12-29T08:29:34;9.30;99.90
19044;DHT22;9654;52.302;8.120;2022-12-29T08:32:01;9.30;99.90
19044;DHT22;9654;52.302;8.120;2022-12-29T08:34:29;9.40;99.90
19044;DHT22;9654;52.302;8.120;2022-12-29T08:36:56;9.40;99.90
19044;DHT22;9654;52.302;8.120;2022-12-29T08:39:23;9.50;99.90
19044;DHT22;9654;52.302;8.120;2022-12-29T08:41:50;9.60;99.90
19044;DHT22;9654;52.302;8.120;2022-12-29T08:44:18;9.60;99.90
19044;DHT22;9654;52.302;8.120;2022-12-29T08:46:45;9.70;99.90
19044;DHT22;9654;52.302;8.120;2022-12-29T08:49:12;9.70;99.90
19044;DHT22;9654;52.302;8.120;2022-12-29T08:51:39;9.70;99.90
19044;DHT22;9654;52.302;8.120;2022-12-29T08:54:06;9.70;99.90
19044;DHT22;9654;52.302;8.120;2022-12-29T08:56:32;9.80;99.90
19044;DHT22;9654;52.302;8.120;2022-12-29T08:58:59;9.80;99.90
19044;DHT22;9654;52.302;8.120;2022-12-29T09:01:27;9.80;99.90
19044;DHT22;9654;52.302;8.120;2022-12-29T09:03:55;9.90;99.90
19044;DHT22;9654;52.302;8.120;2022-12-29T09:06:22;9.90;99.90
19044;DHT22;9654;52.302;8.120;2022-12-29T09:08:49;10.00;99.90
19044;DHT22;9654;52.302;8.120;2022-12-29T09:11:18;10.10;99.90
19044;DHT22;9654;52.302;8.120;2022-12-29T09:13:45;10.10;99.90
19044;DHT22;9654;52.302;8.120;2022-12-29T09:16:12;10.20;99.90
19044;DHT22;9654;52.302;8.120;2022-12-29T09:18:41;10.10;99.90
19044;DHT22;9654;52.302;8.120;2022-12-29T09:21:09;10.10;99.90
19044;DHT22;9654;52.302;8.120;2022-12-29T09:23:36;10.10;99.90
19044;DHT22;9654;52.302;8.120;2022-12-29T09:26:03;10.20;99.90
19044;DHT22;9654;52.302;8.120;2022-12-29T09:28:30;10.20;99.90
19044;DHT22;9654;52.302;8.120;2022-12-29T09:30:57;10.20;99.90
19044;DHT22;9654;52.302;8.120;2022-12-29T09:33:24;10.30;99.90
19044;DHT22;9654;52.302;8.120;2022-12-29T09:35:54;10.30;99.90
19044;DHT22;9654;52.302;8.120;2022-12-29T09:38:22;10.40;99.90
19044;DHT22;9654;52.302;8.120;2022-12-29T09:40:51;10.40;99.90
19044;DHT22;9654;52.302;8.120;2022-12-29T09:43:28;10.50;99.90
19044;DHT22;9654;52.302;8.120;2022-12-29T09:46:04;10.60;99.90
19044;DHT22;9654;52.302;8.120;2022-12-29T09:48:40;10.60;99.90
19044;DHT22;9654;52.302;8.120;2022-12-29T09:51:13;10.70;99.90
19044;DHT22;9654;52.302;8.120;2022-12-29T09:53:43;10.70;99.90
19044;DHT22;9654;52.302;8.120;2022-12-29T09:56:15;10.80;99.90
19044;DHT22;9654;52.302;8.120;2022-12-29T09:58:47;10.80;99.90
19044;DHT22;9654;52.302;8.120;2022-12-29T10:01:23;10.80;99.90
19044;DHT22;9654;52.302;8.120;2022-12-29T10:03:56;10.90;99.90
19044;DHT22;9654;52.302;8.120;2022-12-29T10:06:28;10.90;99.90
19044;DHT22;9654;52.302;8.120;2022-12-29T10:09:01;11.00;99.90
19044;DHT22;9654;52.302;8.120;2022-12-29T10:11:42;11.00;99.90
19044;DHT22;9654;52.302;8.120;2022-12-29T10:14:25;11.10;99.90
19044;DHT22;9654;52.302;8.120;2022-12-29T10:17:01;11.20;99.90
19044;DHT22;9654;52.302;8.120;2022-12-29T10:19:50;11.30;99.90
19044;DHT22;9654;52.302;8.120;2022-12-29T10:22:32;11.30;99.90
19044;DHT22;9654;52.302;8.120;2022-12-29T10:25:02;11.30;99.90
19044;DHT22;9654;52.302;8.120;2022-12-29T10:27:35;11.30;99.90
19044;DHT22;9654;52.302;8.120;2022-12-29T10:30:03;11.30;99.90
19044;DHT22;9654;52.302;8.120;2022-12-29T10:32:33;11.30;99.90
19044;DHT22;9654;52.302;8.120;2022-12-29T10:35:05;11.30;99.90
19044;DHT22;9654;52.302;8.120;2022-12-29T10:37:42;11.40;99.90
19044;DHT22;9654;52.302;8.120;2022-12-29T10:40:18;11.40;99.90
19044;DHT22;9654;52.302;8.120;2022-12-29T10:42:49;11.40;99.90
19044;DHT22;9654;52.302;8.120;2022-12-29T10:45:18;11.30;99.90
19044;DHT22;9654;52.302;8.120;2022-12-29T10:47:52;11.30;99.90
19044;DHT22;9654;52.302;8.120;2022-12-29T10:50:20;11.30;99.90
19044;DHT22;9654;52.302;8.120;2022-12-29T10:52:51;11.30;99.90
19044;DHT22;9654;52.302;8.120;2022-12-29T10:55:22;11.20;99.90
19044;DHT22;9654;52.302;8.120;2022-12-29T10:57:50;11.20;99.90
19044;DHT22;9654;52.302;8.120;2022-12-29T11:00:19;11.20;99.90
19044;DHT22;9654;52.302;8.120;2022-12-29T11:03:07;11.10;99.90
19044;DHT22;9654;52.302;8.120;2022-12-29T11:05:41;11.10;99.90
19044;DHT22;9654;52.302;8.120;2022-12-29T11:08:17;11.10;99.90
19044;DHT22;9654;52.302;8.120;2022-12-29T11:10:45;11.10;99.90
19044;DHT22;9654;52.302;8.120;2022-12-29T11:13:15;11.10;99.90
19044;DHT22;9654;52.302;8.120;2022-12-29T11:15:42;11.00;99.90
19044;DHT22;9654;52.302;8.120;2022-12-29T11:18:21;11.00;99.90
19044;DHT22;9654;52.302;8.120;2022-12-29T11:20:49;11.00;99.90
19044;DHT22;9654;52.302;8.120;2022-12-29T11:23:29;10.90;99.90
19044;DHT22;9654;52.302;8.120;2022-12-29T11:26:17;10.90;99.90
19044;DHT22;9654;52.302;8.120;2022-12-29T11:28:45;10.90;99.90
19044;DHT22;9654;52.302;8.120;2022-12-29T11:31:16;10.90;99.90
19044;DHT22;9654;52.302;8.120;2022-12-29T11:33:43;10.90;99.90
19044;DHT22;9654;52.302;8.120;2022-12-29T11:36:13;10.90;99.90
19044;DHT22;9654;52.302;8.120;2022-12-29T11:38:45;10.90;99.90
19044;DHT22;9654;52.302;8.120;2022-12-29T11:41:20;10.90;99.90
19044;DHT22;9654;52.302;8.120;2022-12-29T11:43:47;10.90;99.90
19044;DHT22;9654;52.302;8.120;2022-12-29T11:46:17;10.90;99.90
19044;DHT22;9654;52.302;8.120;2022-12-29T11:48:46;10.90;99.90
19044;DHT22;9654;52.302;8.120;2022-12-29T11:51:22;11.00;99.90
19044;DHT22;9654;52.302;8.120;2022-12-29T11:53:54;11.00;99.90
19044;DHT22;9654;52.302;8.120;2022-12-29T11:56:33;11.00;99.90
19044;DHT22;9654;52.302;8.120;2022-12-29T11:59:25;11.00;99.90
19044;DHT22;9654;52.302;8.120;2022-12-29T12:02:10;11.00;99.90
19044;DHT22;9654;52.302;8.120;2022-12-29T12:04:41;10.90;99.90
19044;DHT22;9654;52.302;8.120;2022-12-29T12:07:12;11.00;99.90
19044;DHT22;9654;52.302;8.120;2022-12-29T12:09:45;11.00;99.90
19044;DHT22;9654;52.302;8.120;2022-12-29T12:12:21;11.00;99.90
19044;DHT22;9654;52.302;8.120;2022-12-29T12:14:54;11.00;99.90
19044;DHT22;9654;52.302;8.120;2022-12-29T12:17:25;11.00;99.90
19044;DHT22;9654;52.302;8.120;2022-12-29T12:20:10;11.10;99.90
19044;DHT22;9654;52.302;8.120;2022-12-29T12:22:45;11.10;99.90
19044;DHT22;9654;52.302;8.120;2022-12-29T12:25:18;11.00;99.90
19044;DHT22;9654;52.302;8.120;2022-12-29T12:27:51;10.90;99.90
19044;DHT22;9654;52.302;8.120;2022-12-29T12:30:20;10.80;99.90
19044;DHT22;9654;52.302;8.120;2022-12-29T12:32:52;10.80;99.90
19044;DHT22;9654;52.302;8.120;2022-12-29T12:35:25;10.70;99.90
19044;DHT22;9654;52.302;8.120;2022-12-29T12:38:06;10.60;99.90
19044;DHT22;9654;52.302;8.120;2022-12-29T12:40:59;10.50;99.90
19044;DHT22;9654;52.302;8.120;2022-12-29T12:43:45;10.30;99.90
19044;DHT22;9654;52.302;8.120;2022-12-29T12:49:22;10.20;99.90
19044;DHT22;9654;52.302;8.120;2022-12-29T12:51:59;10.20;99.90
19044;DHT22;9654;52.302;8.120;2022-12-29T12:54:41;10.20;99.90
19044;DHT22;9654;52.302;8.120;2022-12-29T12:57:30;10.30;99.90
19044;DHT22;9654;52.302;8.120;2022-12-29T13:00:03;10.10;99.90
19044;DHT22;9654;52.302;8.120;2022-12-29T13:02:39;10.10;99.90
19044;DHT22;9654;52.302;8.120;2022-12-29T13:05:27;10.10;99.90
19044;DHT22;9654;52.302;8.120;2022-12-29T13:08:12;10.10;99.90
19044;DHT22;9654;52.302;8.120;2022-12-29T13:10:50;10.10;99.90
19044;DHT22;9654;52.302;8.120;2022-12-29T13:13:48;10.10;99.90
19044;DHT22;9654;52.302;8.120;2022-12-29T13:16:26;10.10;99.90
19044;DHT22;9654;52.302;8.120;2022-12-29T13:18:59;10.10;99.90
19044;DHT22;9654;52.302;8.120;2022-12-29T13:21:37;10.10;99.90
19044;DHT22;9654;52.302;8.120;2022-12-29T13:24:12;10.20;99.90
19044;DHT22;9654;52.302;8.120;2022-12-29T13:26:44;10.20;99.90
19044;DHT22;9654;52.302;8.120;2022-12-29T13:29:17;10.30;99.90
19044;DHT22;9654;52.302;8.120;2022-12-29T13:31:50;10.30;99.90
19044;DHT22;9654;52.302;8.120;2022-12-29T13:34:28;10.30;99.90
19044;DHT22;9654;52.302;8.120;2022-12-29T13:36:59;10.40;99.90
19044;DHT22;9654;52.302;8.120;2022-12-29T13:39:30;10.40;99.90
19044;DHT22;9654;52.302;8.120;2022-12-29T13:41:59;10.40;99.90
19044;DHT22;9654;52.302;8.120;2022-12-29T13:44:34;10.50;99.90
19044;DHT22;9654;52.302;8.120;2022-12-29T13:47:04;10.40;99.90
19044;DHT22;9654;52.302;8.120;2022-12-29T13:49:33;10.40;99.90
19044;DHT22;9654;52.302;8.120;2022-12-29T13:52:09;10.40;99.90
19044;DHT22;9654;52.302;8.120;2022-12-29T13:54:45;10.40;99.90
19044;DHT22;9654;52.302;8.120;2022-12-29T13:57:22;10.40;99.90
19044;DHT22;9654;52.302;8.120;2022-12-29T13:59:59;10.30;99.90
19044;DHT22;9654;52.302;8.120;2022-12-29T14:02:34;10.30;99.90
19044;DHT22;9654;52.302;8.120;2022-12-29T14:05:28;10.30;99.90
19044;DHT22;9654;52.302;8.120;2022-12-29T14:07:58;10.30;99.90
19044;DHT22;9654;52.302;8.120;2022-12-29T14:10:30;10.30;99.90
19044;DHT22;9654;52.302;8.120;2022-12-29T14:13:03;10.30;99.90
19044;DHT22;9654;52.302;8.120;2022-12-29T14:15:32;10.30;99.90
19044;DHT22;9654;52.302;8.120;2022-12-29T14:18:13;10.40;99.90
19044;DHT22;9654;52.302;8.120;2022-12-29T14:20:51;10.40;99.90
19044;DHT22;9654;52.302;8.120;2022-12-29T14:23:28;10.40;99.90
19044;DHT22;9654;52.302;8.120;2022-12-29T14:26:11;10.30;99.90
19044;DHT22;9654;52.302;8.120;2022-12-29T14:28:40;10.30;99.90
19044;DHT22;9654;52.302;8.120;2022-12-29T14:31:33;10.30;99.90
19044;DHT22;9654;52.302;8.120;2022-12-29T14:34:30;10.20;99.90
19044;DHT22;9654;52.302;8.120;2022-12-29T14:36:59;10.20;99.90
19044;DHT22;9654;52.302;8.120;2022-12-29T14:39:31;10.20;99.90
19044;DHT22;9654;52.302;8.120;2022-12-29T14:42:00;10.20;99.90
19044;DHT22;9654;52.302;8.120;2022-12-29T14:44:27;10.20;99.90
19044;DHT22;9654;52.302;8.120;2022-12-29T14:47:00;10.20;99.90
19044;DHT22;9654;52.302;8.120;2022-12-29T14:49:32;10.20;99.90
19044;DHT22;9654;52.302;8.120;2022-12-29T14:52:12;10.10;99.90
19044;DHT22;9654;52.302;8.120;2022-12-29T14:54:44;10.10;99.90
19044;DHT22;9654;52.302;8.120;2022-12-29T14:57:32;10.10;99.90
19044;DHT22;9654;52.302;8.120;2022-12-29T15:00:15;10.10;99.90
19044;DHT22;9654;52.302;8.120;2022-12-29T15:02:48;10.10;99.90
19044;DHT22;9654;52.302;8.120;2022-12-29T15:05:29;10.10;99.90
19044;DHT22;9654;52.302;8.120;2022-12-29T15:07:58;10.10;99.90
19044;DHT22;9654;52.302;8.120;2022-12-29T15:10:27;10.10;99.90
19044;DHT22;9654;52.302;8.120;2022-12-29T15:13:04;10.00;99.90
19044;DHT22;9654;52.302;8.120;2022-12-29T15:15:37;10.00;99.90
19044;DHT22;9654;52.302;8.120;2022-12-29T15:18:26;9.90;99.90
19044;DHT22;9654;52.302;8.120;2022-12-29T15:20:55;10.00;99.90
19044;DHT22;9654;52.302;8.120;2022-12-29T15:23:23;9.90;99.90
19044;DHT22;9654;52.302;8.120;2022-12-29T15:25:54;9.90;99.90
19044;DHT22;9654;52.302;8.120;2022-12-29T15:28:22;9.90;99.90
19044;DHT22;9654;52.302;8.120;2022-12-29T15:30:54;9.90;99.90
19044;DHT22;9654;52.302;8.120;2022-12-29T15:33:24;9.90;99.90
19044;DHT22;9654;52.302;8.120;2022-12-29T15:35:54;9.90;99.90
19044;DHT22;9654;52.302;8.120;2022-12-29T15:38:23;9.80;99.90
19044;DHT22;9654;52.302;8.120;2022-12-29T15:40:53;9.80;99.90
19044;DHT22;9654;52.302;8.120;2022-12-29T15:43:33;9.70;99.90
19044;DHT22;9654;52.302;8.120;2022-12-29T15:46:03;9.70;99.90
19044;DHT22;9654;52.302;8.120;2022-12-29T15:48:32;9.70;99.90
19044;DHT22;9654;52.302;8.120;2022-12-29T15:51:00;9.70;99.90
19044;DHT22;9654;52.302;8.120;2022-12-29T15:53:28;9.70;99.90
19044;DHT22;9654;52.302;8.120;2022-12-29T15:55:58;9.70;99.90
19044;DHT22;9654;52.302;8.120;2022-12-29T15:58:27;9.70;99.90
19044;DHT22;9654;52.302;8.120;2022-12-29T16:00:56;9.70;99.90
19044;DHT22;9654;52.302;8.120;2022-12-29T16:03:24;9.70;99.90
19044;DHT22;9654;52.302;8.120;2022-12-29T16:05:56;9.70;99.90
19044;DHT22;9654;52.302;8.120;2022-12-29T16:08:32;9.70;99.90
19044;DHT22;9654;52.302;8.120;2022-12-29T16:11:00;9.60;99.90
19044;DHT22;9654;52.302;8.120;2022-12-29T16:13:30;9.50;99.90
19044;DHT22;9654;52.302;8.120;2022-12-29T16:16:01;9.30;99.90
19044;DHT22;9654;52.302;8.120;2022-12-29T16:18:32;9.20;99.90
19044;DHT22;9654;52.302;8.120;2022-12-29T16:21:02;9.10;99.90
19044;DHT22;9654;52.302;8.120;2022-12-29T16:23:31;8.90;99.90